Řízení letového provozu České republiky
Letiste: LKPR Aktualizace: 16.12.2017 22:08:11  UTC
 METAR LKPR 16.12. 22:00 ...
METAR LKPR 162200Z 23011KT CAVOK 01/M02 Q1012 NOSIG RMK REG QNH 1008=
 TAF LKPR 16.12. 17:00 ...
TAF LKPR 161700Z 1618/1800 26010KT 9999 BKN033      TEMPO 1618/1800 7000 -SN BKN014      PROB30 TEMPO 1621/1703 2500 SN BKN007      PROB30 TEMPO 1712/1719 2500 SHSN FEW007TCU BKN009      BECMG 1715/1718 30007KT=